createdAt,value
2022-09-05T00:00:05.453Z,3.30
2022-09-05T00:03:00.076Z,3.10
2022-09-05T00:05:49.575Z,3.10
2022-09-05T00:08:44.882Z,3.57
2022-09-05T00:11:40.868Z,3.30
2022-09-05T00:15:15.396Z,3.60
2022-09-05T00:17:52.864Z,3.67
2022-09-05T00:24:18.768Z,3.50
2022-09-05T00:24:30.902Z,3.73
2022-09-05T00:26:35.196Z,3.50
2022-09-05T00:29:30.300Z,3.90
2022-09-05T00:32:16.153Z,3.87
2022-09-05T00:38:18.124Z,4.30
2022-09-05T00:40:50.734Z,4.30
2022-09-05T00:43:24.042Z,4.10
2022-09-05T00:45:59.670Z,3.50
2022-09-05T00:48:38.548Z,3.80
2022-09-05T00:51:29.375Z,3.93
2022-09-05T00:54:40.937Z,4.50
2022-09-05T00:57:30.842Z,3.83
2022-09-05T01:00:20.186Z,3.90
2022-09-05T01:03:19.286Z,4.03
2022-09-05T01:06:02.673Z,3.63
2022-09-05T01:09:07.888Z,3.87
2022-09-05T01:11:49.666Z,4.83
2022-09-05T01:14:38.183Z,3.70
2022-09-05T01:17:21.670Z,4.00
2022-09-05T01:20:20.182Z,3.80
2022-09-05T01:23:27.185Z,4.07
2022-09-05T01:26:18.779Z,3.60
2022-09-05T01:29:18.164Z,4.00
2022-09-05T01:32:01.776Z,4.20
2022-09-05T01:34:39.284Z,3.97
2022-09-05T01:37:32.941Z,4.10
2022-09-05T01:40:17.058Z,3.70
2022-09-05T01:43:03.004Z,4.40
2022-09-05T01:45:47.600Z,4.50
2022-09-05T01:48:31.606Z,4.17
2022-09-05T01:51:29.251Z,3.93
2022-09-05T01:54:25.050Z,4.03
2022-09-05T01:57:09.725Z,4.30
2022-09-05T01:59:51.222Z,4.50
2022-09-05T02:02:50.819Z,4.50
2022-09-05T02:05:51.259Z,4.07
2022-09-05T02:08:48.500Z,4.00
2022-09-05T02:11:35.769Z,3.83
2022-09-05T02:14:27.050Z,4.40
2022-09-05T02:17:50.034Z,4.73
2022-09-05T02:20:23.938Z,4.03
2022-09-05T02:23:40.170Z,4.30
2022-09-05T02:26:02.481Z,3.83
2022-09-05T02:28:39.936Z,4.50
2022-09-05T02:31:20.936Z,4.43
2022-09-05T02:34:02.427Z,4.27
2022-09-05T02:36:44.127Z,3.70
2022-09-05T02:45:03.448Z,4.33
2022-09-05T02:45:20.071Z,4.43
2022-09-05T02:45:27.297Z,4.60
2022-09-05T02:48:15.404Z,4.63
2022-09-05T02:57:23.422Z,4.30
2022-09-05T02:57:33.109Z,4.30
2022-09-05T02:57:40.790Z,4.33
2022-09-05T03:01:04.822Z,4.50
2022-09-05T03:04:23.459Z,4.47
2022-09-05T03:07:09.284Z,4.80
2022-09-05T03:09:55.602Z,4.90
2022-09-05T03:12:59.152Z,5.10
2022-09-05T03:16:09.113Z,4.70
2022-09-05T03:19:27.892Z,4.60
2022-09-05T03:22:36.778Z,5.07
2022-09-05T03:25:41.985Z,5.50
2022-09-05T03:28:37.610Z,5.17
2022-09-05T03:31:26.866Z,5.37
2022-09-05T03:34:38.455Z,5.70
2022-09-05T03:38:03.312Z,4.60
2022-09-05T03:40:49.882Z,5.40
2022-09-05T03:43:59.696Z,5.60
2022-09-05T03:46:54.721Z,5.10
2022-09-05T03:55:45.456Z,5.47
2022-09-05T03:57:15.963Z,4.87
2022-09-05T03:57:18.915Z,4.80
2022-09-05T03:59:09.908Z,5.70
2022-09-05T04:03:12.926Z,5.33
2022-09-05T04:08:23.655Z,5.07
2022-09-05T04:08:28.023Z,5.10
2022-09-05T04:10:34.533Z,5.20
2022-09-05T04:13:08.996Z,5.13
2022-09-05T04:15:42.611Z,5.63
2022-09-05T04:18:33.824Z,5.23
2022-09-05T04:21:08.127Z,5.53
2022-09-05T04:23:48.302Z,5.10
2022-09-05T04:26:32.360Z,4.83
2022-09-05T04:29:15.304Z,5.27
2022-09-05T04:32:15.393Z,4.80
2022-09-05T04:34:56.399Z,4.97
2022-09-05T04:37:55.369Z,5.20
2022-09-05T04:41:01.029Z,5.70
2022-09-05T04:43:35.871Z,4.93
2022-09-05T04:46:23.155Z,5.80
2022-09-05T04:49:02.640Z,5.17
2022-09-05T04:52:01.232Z,4.83
2022-09-05T04:54:35.853Z,5.10
2022-09-05T04:57:16.613Z,5.43
2022-09-05T05:05:58.591Z,5.10
2022-09-05T05:06:16.274Z,5.03
2022-09-05T05:06:19.100Z,5.50
2022-09-05T05:08:50.579Z,5.80
2022-09-05T05:17:56.088Z,5.10
2022-09-05T05:18:02.720Z,5.20
2022-09-05T05:18:08.286Z,5.33
2022-09-05T05:20:42.071Z,5.60
2022-09-05T05:23:13.130Z,4.87
2022-09-05T05:25:50.936Z,5.43
2022-09-05T05:28:28.765Z,5.40
2022-09-05T05:31:09.512Z,5.23
2022-09-05T05:33:40.407Z,5.10
2022-09-05T05:36:18.298Z,5.07
2022-09-05T05:38:54.127Z,4.70
2022-09-05T05:41:26.724Z,5.17
2022-09-05T05:43:56.465Z,4.87
2022-09-05T05:46:35.407Z,4.67
2022-09-05T05:49:39.291Z,4.63
2022-09-05T05:52:38.356Z,4.40
2022-09-05T05:55:50.319Z,4.50
2022-09-05T05:58:31.252Z,4.40
2022-09-05T06:01:40.890Z,4.77
2022-09-05T06:04:50.111Z,4.43
2022-09-05T06:08:06.142Z,4.63
2022-09-05T06:14:52.270Z,4.30
2022-09-05T06:14:57.750Z,4.97
2022-09-05T06:17:28.610Z,4.47
2022-09-05T06:22:07.594Z,4.30
2022-09-05T06:24:21.350Z,4.37
2022-09-05T06:27:01.392Z,4.23
2022-09-05T06:29:47.075Z,4.47
2022-09-05T06:32:31.854Z,4.53
2022-09-05T06:35:27.545Z,4.37
2022-09-05T06:38:06.411Z,3.70
2022-09-05T06:40:44.914Z,3.80
2022-09-05T06:43:28.924Z,3.77
2022-09-05T06:46:11.870Z,4.37
2022-09-05T06:49:30.644Z,4.73
2022-09-05T06:52:28.793Z,4.03
2022-09-05T06:55:34.125Z,4.20
2022-09-05T06:58:37.586Z,3.50
2022-09-05T07:01:07.210Z,3.33
2022-09-05T07:03:57.217Z,4.30
2022-09-05T07:06:59.343Z,3.70
2022-09-05T07:09:28.975Z,3.97
2022-09-05T07:12:11.243Z,4.10
2022-09-05T07:14:53.783Z,4.20
2022-09-05T07:17:53.541Z,3.67
2022-09-05T07:21:02.289Z,3.90
2022-09-05T07:24:08.797Z,4.07
2022-09-05T07:26:53.431Z,3.97
2022-09-05T07:29:28.056Z,3.60
2022-09-05T07:32:00.131Z,3.67
2022-09-05T07:34:31.880Z,3.90
2022-09-05T07:37:14.827Z,3.83
2022-09-05T07:39:49.790Z,3.70
2022-09-05T07:42:24.350Z,3.63
2022-09-05T07:44:58.334Z,4.70
2022-09-05T07:47:33.155Z,4.43
2022-09-05T07:51:35.601Z,3.67
2022-09-05T07:56:51.339Z,3.13
2022-09-05T07:57:01.604Z,3.20
2022-09-05T07:58:45.447Z,3.33
2022-09-05T08:01:15.985Z,3.17
2022-09-05T08:03:46.623Z,2.80
2022-09-05T08:06:41.473Z,3.40
2022-09-05T08:09:21.566Z,3.13
2022-09-05T08:12:11.617Z,3.20
2022-09-05T08:14:52.972Z,3.70
2022-09-05T08:17:29.868Z,4.10
2022-09-05T08:20:25.527Z,3.27
2022-09-05T08:23:06.202Z,3.27
2022-09-05T08:25:56.930Z,3.00
2022-09-05T08:28:37.580Z,3.33
2022-09-05T08:31:13.453Z,2.60
2022-09-05T08:33:43.652Z,3.13
2022-09-05T08:36:27.696Z,3.37
2022-09-05T08:38:59.950Z,3.37
2022-09-05T08:41:50.045Z,2.80
2022-09-05T08:46:42.369Z,3.07
2022-09-05T08:47:41.476Z,3.00
2022-09-05T08:50:30.524Z,3.13
2022-09-05T08:53:35.340Z,2.87
2022-09-05T08:56:06.590Z,3.17
2022-09-05T08:59:27.263Z,2.93
2022-09-05T09:02:17.341Z,3.00
2022-09-05T09:05:01.735Z,2.90
2022-09-05T09:07:50.637Z,2.83
2022-09-05T09:10:31.810Z,3.00
2022-09-05T09:13:12.250Z,2.73
2022-09-05T09:15:47.501Z,3.10
2022-09-05T09:18:17.828Z,2.60
2022-09-05T09:20:53.107Z,2.70
2022-09-05T09:23:46.665Z,3.23
2022-09-05T09:26:18.777Z,3.17
2022-09-05T09:28:57.222Z,3.27
2022-09-05T09:31:54.628Z,2.60
2022-09-05T09:34:51.144Z,2.50
2022-09-05T09:37:53.411Z,2.57
2022-09-05T09:40:50.221Z,2.73
2022-09-05T09:43:40.262Z,2.77
2022-09-05T09:47:13.604Z,2.53
2022-09-05T09:50:01.992Z,2.40
2022-09-05T09:52:57.749Z,2.57
2022-09-05T09:55:44.457Z,2.73
2022-09-05T09:58:42.105Z,2.77
2022-09-05T10:01:36.603Z,2.73
2022-09-05T10:10:34.940Z,2.60
2022-09-05T10:10:50.599Z,2.77
2022-09-05T10:14:49.974Z,2.00
2022-09-05T10:17:44.777Z,2.30
2022-09-05T10:20:33.145Z,2.47
2022-09-05T10:23:36.946Z,2.50
2022-09-05T10:27:07.007Z,2.50
2022-09-05T10:35:13.251Z,2.30
2022-09-05T10:36:26.532Z,2.20
2022-09-05T10:39:13.605Z,2.27
2022-09-05T10:41:49.121Z,2.40
2022-09-05T10:44:24.982Z,2.83
2022-09-05T10:50:42.758Z,2.00
2022-09-05T10:53:23.307Z,2.30
2022-09-05T10:56:03.957Z,2.07
2022-09-05T11:02:01.757Z,2.40
2022-09-05T11:02:27.828Z,2.27
2022-09-05T11:05:05.758Z,2.13
2022-09-05T11:07:43.107Z,2.07
2022-09-05T11:10:19.569Z,2.03
2022-09-05T11:13:08.713Z,1.93
2022-09-05T11:16:01.354Z,2.10
2022-09-05T11:18:55.188Z,2.03
2022-09-05T11:21:32.024Z,2.10
2022-09-05T11:24:13.538Z,1.90
2022-09-05T11:26:52.921Z,2.20
2022-09-05T11:29:42.767Z,1.77
2022-09-05T11:39:14.806Z,1.80
2022-09-05T11:39:47.691Z,1.90
2022-09-05T11:40:09.968Z,2.10
2022-09-05T11:42:12.975Z,2.40
2022-09-05T11:44:56.991Z,2.70
2022-09-05T11:48:02.561Z,2.57
2022-09-05T11:51:00.669Z,2.10
2022-09-05T11:54:06.981Z,2.00
2022-09-05T11:57:21.653Z,2.40
2022-09-05T12:00:32.482Z,2.00
2022-09-05T12:03:08.960Z,2.13
2022-09-05T12:05:59.939Z,2.50
2022-09-05T12:08:40.198Z,2.10
2022-09-05T12:11:20.818Z,2.03
2022-09-05T12:13:56.108Z,1.87
2022-09-05T12:16:58.238Z,2.03
2022-09-05T12:19:35.053Z,2.10
2022-09-05T12:22:29.474Z,2.10
2022-09-05T12:27:36.224Z,2.30
2022-09-05T12:29:26.612Z,2.00
2022-09-05T12:32:30.470Z,2.23
2022-09-05T12:36:07.079Z,2.20
2022-09-05T12:41:33.575Z,2.10
2022-09-05T12:41:42.382Z,1.97
2022-09-05T12:44:00.687Z,2.10
2022-09-05T12:46:00.025Z,2.27
2022-09-05T12:48:39.110Z,2.53
2022-09-05T12:51:18.042Z,2.20
2022-09-05T12:54:09.363Z,2.63
2022-09-05T13:00:52.517Z,2.13
2022-09-05T13:03:09.384Z,2.03
2022-09-05T13:03:13.739Z,2.40
2022-09-05T13:05:46.423Z,2.20
2022-09-05T13:08:22.132Z,2.20
2022-09-05T13:14:46.628Z,2.10
2022-09-05T13:14:50.821Z,2.13
2022-09-05T13:16:44.378Z,2.30
2022-09-05T13:19:24.317Z,2.00
2022-09-05T13:21:57.607Z,2.13
2022-09-05T13:24:32.372Z,2.20
2022-09-05T13:27:08.916Z,2.00
2022-09-05T13:30:48.474Z,2.13
2022-09-05T13:38:06.302Z,2.10
2022-09-05T13:38:19.333Z,2.10
2022-09-05T13:38:48.371Z,1.77
2022-09-05T13:41:28.314Z,1.87
2022-09-05T13:44:25.559Z,1.90
2022-09-05T13:46:58.578Z,2.13
2022-09-05T13:49:33.434Z,2.10
2022-09-05T13:52:26.535Z,2.00
2022-09-05T13:55:07.533Z,1.93
2022-09-05T13:57:44.044Z,1.97
2022-09-05T14:00:53.982Z,2.10
2022-09-05T14:04:01.612Z,1.97
2022-09-05T14:07:44.088Z,2.00
2022-09-05T14:10:06.081Z,1.90
2022-09-05T14:12:42.916Z,2.30
2022-09-05T14:15:28.956Z,2.20
2022-09-05T14:18:21.401Z,2.20
2022-09-05T14:21:13.286Z,1.93
2022-09-05T14:23:48.670Z,2.00
2022-09-05T14:26:24.369Z,2.13
2022-09-05T14:29:03.613Z,2.17
2022-09-05T14:37:34.936Z,2.10
2022-09-05T14:37:52.529Z,2.03
2022-09-05T14:38:07.892Z,1.90
2022-09-05T14:41:33.930Z,1.93
2022-09-05T14:44:41.689Z,1.73
2022-09-05T14:47:47.497Z,2.33
2022-09-05T14:50:30.853Z,2.00
2022-09-05T14:57:23.129Z,2.13
2022-09-05T15:02:51.033Z,2.30
2022-09-05T15:02:58.392Z,2.00
2022-09-05T15:04:44.597Z,1.90
2022-09-05T15:07:20.117Z,2.07
2022-09-05T15:12:15.087Z,2.03
2022-09-05T15:12:52.009Z,2.00
2022-09-05T15:15:29.029Z,2.00
2022-09-05T15:18:01.565Z,1.90
2022-09-05T15:20:36.042Z,1.80
2022-09-05T15:23:11.283Z,1.90
2022-09-05T15:25:48.487Z,1.80
2022-09-05T15:28:21.474Z,1.87
2022-09-05T15:31:01.601Z,1.93
2022-09-05T15:33:31.595Z,3.03
2022-09-05T15:36:03.047Z,2.37
2022-09-05T15:38:55.091Z,2.50
2022-09-05T15:41:25.335Z,2.97
2022-09-05T15:44:02.627Z,2.77
2022-09-05T15:46:41.478Z,2.70
2022-09-05T15:49:14.461Z,2.67
2022-09-05T15:51:48.220Z,2.70
2022-09-05T15:54:36.001Z,2.23
2022-09-05T15:57:13.415Z,2.30
2022-09-05T15:59:49.474Z,1.80
2022-09-05T16:02:22.298Z,1.80
2022-09-05T16:10:28.918Z,2.30
2022-09-05T16:10:44.977Z,1.90
2022-09-05T16:11:07.717Z,1.70
2022-09-05T16:13:53.211Z,1.93
2022-09-05T16:20:43.375Z,1.90
2022-09-05T16:23:25.118Z,2.13
2022-09-05T16:23:26.989Z,2.50
2022-09-05T16:25:10.044Z,2.10
2022-09-05T16:27:52.899Z,1.60
2022-09-05T16:30:23.396Z,1.60
2022-09-05T16:32:56.360Z,1.80
2022-09-05T16:35:26.708Z,2.00
2022-09-05T16:38:03.783Z,2.30
2022-09-05T16:40:40.179Z,2.30
2022-09-05T16:43:11.729Z,2.73
2022-09-05T16:45:49.859Z,3.30
2022-09-05T16:48:32.705Z,2.67
2022-09-05T16:51:15.133Z,1.90
2022-09-05T16:53:58.222Z,2.07
2022-09-05T16:56:34.272Z,4.30
2022-09-05T16:59:08.079Z,5.07
2022-09-05T17:02:05.662Z,6.23
2022-09-05T17:05:05.001Z,5.47
2022-09-05T17:07:55.630Z,5.40
2022-09-05T17:10:32.528Z,4.73
2022-09-05T17:13:03.648Z,4.97
2022-09-05T17:15:36.954Z,3.80
2022-09-05T17:18:21.813Z,3.33
2022-09-05T17:20:56.370Z,3.37
2022-09-05T17:25:41.390Z,3.60
2022-09-05T17:29:44.622Z,4.00
2022-09-05T17:32:48.528Z,4.57
2022-09-05T17:35:24.766Z,6.27
2022-09-05T17:38:18.249Z,4.97
2022-09-05T17:41:13.618Z,5.03
2022-09-05T17:43:43.336Z,42.20
2022-09-05T17:46:23.570Z,31.93
2022-09-05T17:49:18.550Z,18.43
2022-09-05T17:52:17.720Z,6.43
2022-09-05T17:54:50.118Z,4.50
2022-09-05T17:57:40.273Z,4.70
2022-09-05T18:00:59.641Z,4.87
2022-09-05T18:04:16.970Z,4.33
2022-09-05T18:07:00.600Z,4.47
2022-09-05T18:13:31.343Z,3.93
2022-09-05T18:16:12.216Z,3.60
2022-09-05T18:19:28.348Z,3.90
2022-09-05T18:24:42.521Z,3.40
2022-09-05T18:28:03.161Z,2.97
2022-09-05T18:30:29.179Z,2.40
2022-09-05T18:33:53.365Z,3.37
2022-09-05T18:36:35.253Z,4.67
2022-09-05T18:39:40.771Z,5.83
2022-09-05T18:42:33.582Z,10.17
2022-09-05T18:45:15.476Z,4.40
2022-09-05T18:47:57.336Z,3.90
2022-09-05T18:50:32.496Z,3.97
2022-09-05T18:53:09.033Z,3.30
2022-09-05T18:56:11.126Z,3.10
2022-09-05T18:58:35.948Z,2.97
2022-09-05T19:01:31.204Z,2.60
2022-09-05T19:04:03.801Z,3.20
2022-09-05T19:06:37.900Z,2.90
2022-09-05T19:09:09.961Z,3.17
2022-09-05T19:11:52.945Z,3.07
2022-09-05T19:14:37.884Z,3.80
2022-09-05T19:17:15.240Z,3.30
2022-09-05T19:20:33.286Z,2.97
2022-09-05T19:23:11.579Z,4.03
2022-09-05T19:25:43.794Z,4.13
2022-09-05T19:36:44.206Z,4.20
2022-09-05T19:36:57.051Z,3.70
2022-09-05T19:37:03.447Z,3.00
2022-09-05T19:47:16.399Z,3.73
2022-09-05T19:47:34.561Z,3.20
2022-09-05T19:47:43.032Z,3.60
2022-09-05T19:50:56.084Z,8.80
2022-09-05T19:53:26.115Z,3.40
2022-09-05T19:55:55.179Z,122.47
2022-09-05T19:58:25.777Z,116.63
2022-09-05T20:01:06.110Z,172.33
2022-09-05T20:03:41.823Z,83.07
2022-09-05T20:06:26.729Z,167.07
2022-09-05T20:09:11.240Z,14.70
2022-09-05T20:11:45.579Z,4.23
2022-09-05T20:14:23.958Z,3.10
2022-09-05T20:16:54.973Z,3.03
2022-09-05T20:19:34.243Z,3.10
2022-09-05T20:22:31.847Z,3.43
2022-09-05T20:24:56.557Z,3.90
2022-09-05T20:27:28.196Z,3.83
2022-09-05T20:29:59.239Z,4.57
2022-09-05T20:32:39.317Z,3.93
2022-09-05T20:40:37.169Z,4.10
2022-09-05T20:43:11.679Z,4.20
2022-09-05T20:43:24.419Z,4.43
2022-09-05T20:43:58.666Z,4.47
2022-09-05T20:51:10.633Z,4.70
2022-09-05T20:54:13.488Z,3.47
2022-09-05T20:54:28.817Z,3.60
2022-09-05T20:55:38.765Z,3.57
2022-09-05T20:58:09.288Z,3.50
2022-09-05T21:00:39.932Z,3.30
2022-09-05T21:03:09.169Z,2.80
2022-09-05T21:05:40.560Z,2.47
2022-09-05T21:08:24.793Z,2.77
2022-09-05T21:10:56.369Z,2.87
2022-09-05T21:13:27.997Z,2.80
2022-09-05T21:15:57.261Z,2.70
2022-09-05T21:18:33.305Z,2.70
2022-09-05T21:21:14.624Z,2.60
2022-09-05T21:24:17.705Z,2.40
2022-09-05T21:26:48.751Z,2.77
2022-09-05T21:29:32.781Z,2.50
2022-09-05T21:32:10.742Z,2.60
2022-09-05T21:34:45.184Z,2.60
2022-09-05T21:37:15.984Z,2.17
2022-09-05T21:39:59.822Z,2.47
2022-09-05T21:44:49.171Z,2.47
2022-09-05T21:47:42.647Z,2.50
2022-09-05T21:48:10.680Z,2.73
2022-09-05T21:50:42.735Z,2.43
2022-09-05T21:58:13.036Z,2.53
2022-09-05T21:59:21.157Z,2.90
2022-09-05T21:59:21.637Z,2.40
2022-09-05T22:01:58.080Z,2.10
2022-09-05T22:04:26.963Z,1.90
2022-09-05T22:07:04.222Z,2.27
2022-09-05T22:09:33.214Z,2.37
2022-09-05T22:12:12.011Z,1.93
2022-09-05T22:14:51.564Z,2.37
2022-09-05T22:17:22.519Z,2.07
2022-09-05T22:19:51.142Z,2.10
2022-09-05T22:22:21.055Z,2.27
2022-09-05T22:24:55.864Z,1.90
2022-09-05T22:27:50.774Z,2.30
2022-09-05T22:30:19.466Z,2.23
2022-09-05T22:32:47.976Z,2.27
2022-09-05T22:35:27.710Z,2.40
2022-09-05T22:38:12.471Z,1.80
2022-09-05T22:40:42.995Z,2.33
2022-09-05T22:43:12.956Z,1.80
2022-09-05T22:45:41.780Z,2.00
2022-09-05T22:48:12.313Z,1.90
2022-09-05T22:50:42.128Z,1.80
2022-09-05T22:53:11.255Z,1.80
2022-09-05T22:55:41.236Z,1.90
2022-09-05T22:58:14.146Z,1.83
2022-09-05T23:00:45.025Z,3.33
2022-09-05T23:03:13.785Z,1.97
2022-09-05T23:09:30.454Z,2.10
2022-09-05T23:11:58.863Z,2.00
2022-09-05T23:14:28.864Z,1.87
2022-09-05T23:20:44.322Z,1.70
2022-09-05T23:23:12.817Z,1.90
2022-09-05T23:25:41.412Z,1.73
2022-09-05T23:28:11.346Z,1.93
2022-09-05T23:30:41.521Z,1.73
2022-09-05T23:33:11.089Z,1.70
2022-09-05T23:35:40.177Z,2.00
2022-09-05T23:38:11.530Z,1.77
2022-09-05T23:40:40.514Z,1.97
2022-09-05T23:43:09.601Z,2.07
2022-09-05T23:45:38.168Z,1.73
2022-09-05T23:48:08.044Z,1.50
2022-09-05T23:50:36.629Z,1.53
2022-09-05T23:53:05.978Z,1.50
2022-09-05T23:55:34.911Z,1.87
2022-09-05T23:58:06.260Z,1.50
